createdAt,value
2019-01-26T00:02:00.842Z,-5.40
2019-01-26T00:04:30.882Z,-5.40
2019-01-26T00:07:00.920Z,-5.40
2019-01-26T00:09:31.350Z,-5.30
2019-01-26T00:12:01.361Z,-5.30
2019-01-26T00:14:31.515Z,-5.20
2019-01-26T00:17:01.717Z,-5.20
2019-01-26T00:19:33.067Z,-5.20
2019-01-26T00:22:03.185Z,-5.30
2019-01-26T00:24:33.243Z,-5.30
2019-01-26T00:27:03.287Z,-5.20
2019-01-26T00:29:33.388Z,-5.20
2019-01-26T00:32:03.325Z,-5.20
2019-01-26T00:34:34.021Z,-5.30
2019-01-26T00:37:04.087Z,-5.20
2019-01-26T00:39:34.304Z,-5.20
2019-01-26T00:42:06.142Z,-5.20
2019-01-26T00:44:36.204Z,-5.20
2019-01-26T00:47:06.187Z,-5.20
2019-01-26T00:49:36.255Z,-5.20
2019-01-26T00:52:06.290Z,-5.10
2019-01-26T00:54:36.207Z,-5.10
2019-01-26T00:57:06.230Z,-5.10
2019-01-26T00:59:36.304Z,-5.10
2019-01-26T01:02:06.446Z,-5.10
2019-01-26T01:04:36.648Z,-5.10
2019-01-26T01:07:06.760Z,-5.10
2019-01-26T01:09:36.787Z,-5.10
2019-01-26T01:12:06.968Z,-5.10
2019-01-26T01:14:36.898Z,-5.10
2019-01-26T01:17:07.183Z,-5.10
2019-01-26T01:19:37.243Z,-5.00
2019-01-26T01:22:07.295Z,-5.00
2019-01-26T01:24:37.243Z,-5.00
2019-01-26T01:27:07.374Z,-5.00
2019-01-26T01:29:37.353Z,-5.00
2019-01-26T01:32:07.353Z,-5.10
2019-01-26T01:34:37.367Z,-5.10
2019-01-26T01:37:07.521Z,-5.00
2019-01-26T01:39:37.514Z,-5.00
2019-01-26T01:42:07.643Z,-5.00
2019-01-26T01:44:37.627Z,-5.00
2019-01-26T01:47:08.505Z,-5.10
2019-01-26T01:49:38.374Z,-5.00
2019-01-26T01:52:08.315Z,-5.00
2019-01-26T01:54:38.328Z,-5.10
2019-01-26T01:57:08.525Z,-5.10
2019-01-26T01:59:38.684Z,-5.10
2019-01-26T02:02:08.686Z,-5.00
2019-01-26T02:04:38.656Z,-5.00
2019-01-26T02:07:08.702Z,-5.00
2019-01-26T02:09:38.934Z,-5.00
2019-01-26T02:12:08.988Z,-5.00
2019-01-26T02:14:39.020Z,-5.00
2019-01-26T02:17:09.069Z,-5.00
2019-01-26T02:19:39.065Z,-4.90
2019-01-26T02:22:09.102Z,-4.90
2019-01-26T02:24:39.132Z,-4.90
2019-01-26T02:27:09.079Z,-4.90
2019-01-26T02:29:39.095Z,-4.90
2019-01-26T02:32:09.065Z,-4.90
2019-01-26T02:34:39.100Z,-4.90
2019-01-26T02:37:09.281Z,-4.90
2019-01-26T02:39:39.283Z,-4.90
2019-01-26T02:42:09.576Z,-4.90
2019-01-26T02:44:39.596Z,-4.90
2019-01-26T02:47:09.680Z,-5.00
2019-01-26T02:49:39.611Z,-5.00
2019-01-26T02:52:09.661Z,-5.00
2019-01-26T02:54:39.586Z,-5.00
2019-01-26T02:57:09.604Z,-5.00
2019-01-26T02:59:39.553Z,-5.00
2019-01-26T03:02:09.662Z,-4.90
2019-01-26T03:04:39.666Z,-4.90
2019-01-26T03:07:09.757Z,-4.90
2019-01-26T03:09:39.733Z,-4.90
2019-01-26T03:12:09.742Z,-4.90
2019-01-26T03:14:39.774Z,-4.90
2019-01-26T03:17:09.890Z,-4.90
2019-01-26T03:19:39.993Z,-4.90
2019-01-26T03:22:11.887Z,-4.90
2019-01-26T03:24:42.121Z,-4.90
2019-01-26T03:27:12.154Z,-4.90
2019-01-26T03:29:42.134Z,-4.90
2019-01-26T03:32:12.086Z,-4.90
2019-01-26T03:34:43.421Z,-4.90
2019-01-26T03:37:13.491Z,-4.90
2019-01-26T03:39:43.642Z,-4.90
2019-01-26T03:42:13.541Z,-4.90
2019-01-26T03:44:44.461Z,-4.90
2019-01-26T03:47:14.486Z,-4.90
2019-01-26T03:49:44.460Z,-4.80
2019-01-26T03:52:14.469Z,-4.80
2019-01-26T03:54:44.327Z,-4.80
2019-01-26T03:57:14.456Z,-4.80
2019-01-26T03:59:44.346Z,-4.80
2019-01-26T04:02:14.433Z,-4.80
2019-01-26T04:04:44.452Z,-4.80
2019-01-26T04:07:14.485Z,-4.80
2019-01-26T04:09:44.478Z,-4.80
2019-01-26T04:12:14.366Z,-4.80
2019-01-26T04:14:44.383Z,-4.70
2019-01-26T04:17:21.585Z,-4.70
2019-01-26T04:19:46.131Z,-4.80
2019-01-26T04:22:16.058Z,-4.70
2019-01-26T04:24:45.961Z,-4.70
2019-01-26T04:27:15.866Z,-4.80
2019-01-26T04:29:45.797Z,-4.80
2019-01-26T04:32:15.719Z,-4.70
2019-01-26T04:34:45.642Z,-4.80
2019-01-26T04:37:15.740Z,-4.80
2019-01-26T04:39:45.743Z,-4.80
2019-01-26T04:42:15.709Z,-4.80
2019-01-26T04:44:45.676Z,-4.80
2019-01-26T04:47:16.630Z,-4.70
2019-01-26T04:49:47.651Z,-4.80
2019-01-26T04:52:17.555Z,-4.80
2019-01-26T04:54:47.537Z,-4.70
2019-01-26T04:57:17.517Z,-4.80
2019-01-26T04:59:47.541Z,-4.80
2019-01-26T05:02:17.534Z,-4.80
2019-01-26T05:04:47.550Z,-4.80
2019-01-26T05:07:17.752Z,-4.80
2019-01-26T05:09:47.675Z,-4.80
2019-01-26T05:12:17.642Z,-4.80
2019-01-26T05:14:47.656Z,-4.80
2019-01-26T05:17:17.583Z,-4.70
2019-01-26T05:19:47.544Z,-4.70
2019-01-26T05:22:17.526Z,-4.70
2019-01-26T05:24:47.462Z,-4.70
2019-01-26T05:27:17.363Z,-4.70
2019-01-26T05:29:47.483Z,-4.70
2019-01-26T05:32:17.505Z,-4.70
2019-01-26T05:34:47.618Z,-4.80
2019-01-26T05:37:17.589Z,-4.80
2019-01-26T05:39:47.552Z,-4.80
2019-01-26T05:42:17.468Z,-4.90
2019-01-26T05:44:47.413Z,-4.90
2019-01-26T05:47:17.316Z,-4.80
2019-01-26T05:49:47.252Z,-4.80
2019-01-26T05:52:17.173Z,-4.80
2019-01-26T05:54:47.094Z,-4.70
2019-01-26T05:57:17.035Z,-4.70
2019-01-26T05:59:47.054Z,-4.70
2019-01-26T06:02:17.145Z,-4.70
2019-01-26T06:04:47.160Z,-4.60
2019-01-26T06:07:17.144Z,-4.70
2019-01-26T06:09:47.080Z,-4.70
2019-01-26T06:12:17.135Z,-4.70
2019-01-26T06:14:47.216Z,-4.70
2019-01-26T06:17:17.290Z,-4.80
2019-01-26T06:19:47.695Z,-4.80
2019-01-26T06:22:17.807Z,-4.80
2019-01-26T06:24:47.808Z,-4.80
2019-01-26T06:27:17.889Z,-4.80
2019-01-26T06:29:47.809Z,-4.80
2019-01-26T06:32:17.836Z,-4.80
2019-01-26T06:34:47.836Z,-4.70
2019-01-26T06:37:17.777Z,-4.70
2019-01-26T06:39:47.793Z,-4.70
2019-01-26T06:42:17.897Z,-4.70
2019-01-26T06:44:47.864Z,-4.70
2019-01-26T06:47:17.792Z,-4.60
2019-01-26T06:49:47.663Z,-4.60
2019-01-26T06:52:17.665Z,-4.60
2019-01-26T06:54:47.689Z,-4.70
2019-01-26T06:57:17.689Z,-4.70
2019-01-26T06:59:47.695Z,-4.70
2019-01-26T07:02:19.163Z,-4.70
2019-01-26T07:04:54.398Z,-4.70
2019-01-26T07:07:24.691Z,-4.70
2019-01-26T07:09:54.863Z,-4.70
2019-01-26T07:12:24.843Z,-4.70
2019-01-26T07:14:54.963Z,-4.70
2019-01-26T07:17:24.937Z,-4.60
2019-01-26T07:19:54.906Z,-4.60
2019-01-26T07:22:24.926Z,-4.60
2019-01-26T07:24:54.800Z,-4.60
2019-01-26T07:27:24.812Z,-4.60
2019-01-26T07:29:54.896Z,-4.50
2019-01-26T07:32:24.875Z,-4.60
2019-01-26T07:34:54.863Z,-4.60
2019-01-26T07:37:24.963Z,-4.60
2019-01-26T07:39:55.043Z,-4.60
2019-01-26T07:42:25.156Z,-4.60
2019-01-26T07:44:55.200Z,-4.60
2019-01-26T07:47:25.315Z,-4.50
2019-01-26T07:49:55.478Z,-4.50
2019-01-26T07:52:25.507Z,-4.50
2019-01-26T07:54:55.867Z,-4.50
2019-01-26T07:57:26.061Z,-4.50
2019-01-26T07:59:56.147Z,-4.40
2019-01-26T08:02:26.157Z,-4.40
2019-01-26T08:04:56.377Z,-4.40
2019-01-26T08:07:26.387Z,-4.40
2019-01-26T08:09:56.465Z,-4.40
2019-01-26T08:12:26.564Z,-4.30
2019-01-26T08:14:56.707Z,-4.30
2019-01-26T08:17:26.808Z,-4.20
2019-01-26T08:19:57.947Z,-4.10
2019-01-26T08:22:28.232Z,-4.10
2019-01-26T08:24:58.454Z,-4.10
2019-01-26T08:27:28.690Z,-4.00
2019-01-26T08:29:59.041Z,-4.00
2019-01-26T08:32:31.960Z,-4.00
2019-01-26T08:35:01.997Z,-4.00
2019-01-26T08:37:32.204Z,-3.90
2019-01-26T08:40:02.379Z,-3.90
2019-01-26T08:42:33.837Z,-3.90
2019-01-26T08:45:04.296Z,-3.90
2019-01-26T08:47:34.313Z,-3.90
2019-01-26T08:50:05.217Z,-3.80
2019-01-26T08:52:36.935Z,-3.70
2019-01-26T08:55:08.329Z,-3.70
2019-01-26T08:57:38.673Z,-3.70
2019-01-26T09:00:14.116Z,-3.70
2019-01-26T09:03:03.616Z,-3.70
2019-01-26T09:05:36.727Z,-3.70
2019-01-26T09:08:06.847Z,-3.70
2019-01-26T09:10:36.837Z,-3.70
2019-01-26T09:13:06.884Z,-3.70
2019-01-26T09:15:37.029Z,-3.60
2019-01-26T09:18:07.189Z,-3.60
2019-01-26T09:20:37.190Z,-3.60
2019-01-26T09:23:07.347Z,-3.50
2019-01-26T09:25:37.441Z,-3.50
2019-01-26T09:28:09.738Z,-3.50
2019-01-26T09:30:39.744Z,-3.50
2019-01-26T09:33:09.871Z,-3.40
2019-01-26T09:35:40.050Z,-3.40
2019-01-26T09:38:10.250Z,-3.40
2019-01-26T09:40:40.328Z,-3.30
2019-01-26T09:43:10.611Z,-3.30
2019-01-26T09:45:40.622Z,-3.20
2019-01-26T09:48:10.746Z,-3.20
2019-01-26T09:50:40.862Z,-3.20
2019-01-26T09:53:11.027Z,-3.20
2019-01-26T09:55:41.220Z,-3.20
2019-01-26T09:58:11.378Z,-3.20
2019-01-26T10:00:41.605Z,-3.20
2019-01-26T10:03:11.912Z,-3.10
2019-01-26T10:05:42.140Z,-3.10
2019-01-26T10:08:12.330Z,-3.10
2019-01-26T10:10:42.612Z,-3.00
2019-01-26T10:13:12.795Z,-3.00
2019-01-26T10:15:43.223Z,-2.90
2019-01-26T10:18:13.521Z,-2.90
2019-01-26T10:20:43.788Z,-2.80
2019-01-26T10:23:14.925Z,-2.80
2019-01-26T10:25:48.759Z,-2.70
2019-01-26T10:28:17.309Z,-2.60
2019-01-26T10:30:53.439Z,-2.60
2019-01-26T10:33:23.567Z,-2.50
2019-01-26T10:36:15.027Z,-2.50
2019-01-26T10:38:54.846Z,-2.50
2019-01-26T10:41:37.768Z,-2.40
2019-01-26T10:44:09.971Z,-2.40
2019-01-26T10:46:45.099Z,-2.30
2019-01-26T10:49:15.216Z,-2.30
2019-01-26T10:51:45.305Z,-2.30
2019-01-26T10:54:15.390Z,-2.30
2019-01-26T10:56:45.495Z,-2.30
2019-01-26T10:59:15.939Z,-2.30
2019-01-26T11:01:46.502Z,-2.20
2019-01-26T11:04:16.701Z,-2.20
2019-01-26T11:06:48.988Z,-2.10
2019-01-26T11:09:19.069Z,-2.10
2019-01-26T11:11:53.072Z,-2.00
2019-01-26T11:14:23.246Z,-2.00
2019-01-26T11:16:53.328Z,-2.00
2019-01-26T11:19:23.720Z,-2.00
2019-01-26T11:21:53.828Z,-2.00
2019-01-26T11:24:23.920Z,-1.90
2019-01-26T11:26:53.941Z,-1.80
2019-01-26T11:29:23.976Z,-1.80
2019-01-26T11:31:54.036Z,-1.70
2019-01-26T11:34:23.967Z,-1.70
2019-01-26T11:36:54.000Z,-1.70
2019-01-26T11:39:24.129Z,-1.60
2019-01-26T11:41:55.398Z,-1.60
2019-01-26T11:44:25.400Z,-1.60
2019-01-26T11:47:06.628Z,-1.60
2019-01-26T11:49:38.562Z,-1.50
2019-01-26T11:52:09.903Z,-1.50
2019-01-26T11:55:00.147Z,-1.50
2019-01-26T11:57:33.240Z,-1.50
2019-01-26T12:00:23.880Z,-1.50
2019-01-26T12:03:04.025Z,-1.50
2019-01-26T12:05:40.037Z,-1.50
2019-01-26T12:08:10.192Z,-1.50
2019-01-26T12:10:40.525Z,-1.50
2019-01-26T12:13:10.489Z,-1.50
2019-01-26T12:15:40.609Z,-1.40
2019-01-26T12:18:10.721Z,-1.40
2019-01-26T12:20:40.908Z,-1.50
2019-01-26T12:23:11.044Z,-1.40
2019-01-26T12:25:41.041Z,-1.50
2019-01-26T12:28:10.993Z,-1.50
2019-01-26T12:30:40.949Z,-1.40
2019-01-26T12:33:11.856Z,-1.40
2019-01-26T12:35:42.039Z,-1.40
2019-01-26T12:38:12.161Z,-1.40
2019-01-26T12:40:42.958Z,-1.40
2019-01-26T12:43:12.896Z,-1.40
2019-01-26T12:45:43.106Z,-1.40
2019-01-26T12:48:13.228Z,-1.40
2019-01-26T12:50:43.268Z,-1.40
2019-01-26T12:53:13.411Z,-1.40
2019-01-26T12:55:43.649Z,-1.40
2019-01-26T12:58:13.941Z,-1.40
2019-01-26T13:00:43.907Z,-1.40
2019-01-26T13:03:14.184Z,-1.40
2019-01-26T13:05:44.501Z,-1.50
2019-01-26T13:08:14.487Z,-1.50
2019-01-26T13:10:47.248Z,-1.50
2019-01-26T13:13:17.356Z,-1.50
2019-01-26T13:15:47.483Z,-1.50
2019-01-26T13:18:17.701Z,-1.50
2019-01-26T13:20:47.822Z,-1.50
2019-01-26T13:23:17.804Z,-1.60
2019-01-26T13:25:49.053Z,-1.60
2019-01-26T13:28:19.187Z,-1.60
2019-01-26T13:30:49.276Z,-1.60
2019-01-26T13:33:19.378Z,-1.70
2019-01-26T13:35:50.081Z,-1.60
2019-01-26T13:38:20.114Z,-1.60
2019-01-26T13:40:50.226Z,-1.60
2019-01-26T13:43:20.317Z,-1.60
2019-01-26T13:45:50.361Z,-1.60
2019-01-26T13:48:20.437Z,-1.60
2019-01-26T13:50:50.459Z,-1.60
2019-01-26T13:53:20.556Z,-1.70
2019-01-26T13:55:50.586Z,-1.70
2019-01-26T13:58:20.699Z,-1.70
2019-01-26T14:00:51.077Z,-1.70
2019-01-26T14:03:21.187Z,-1.70
2019-01-26T14:05:51.380Z,-1.80
2019-01-26T14:08:21.541Z,-1.80
2019-01-26T14:10:51.527Z,-1.90
2019-01-26T14:13:21.941Z,-1.90
2019-01-26T14:15:52.007Z,-2.00
2019-01-26T14:18:23.162Z,-2.10
2019-01-26T14:20:53.332Z,-2.10
2019-01-26T14:23:23.513Z,-2.20
2019-01-26T14:25:53.528Z,-2.20
2019-01-26T14:28:23.690Z,-2.20
2019-01-26T14:30:57.372Z,-2.30
2019-01-26T14:33:27.379Z,-2.30
2019-01-26T14:35:59.113Z,-2.30
2019-01-26T14:38:29.173Z,-2.30
2019-01-26T14:40:59.219Z,-2.30
2019-01-26T14:43:29.194Z,-2.30
2019-01-26T14:45:59.281Z,-2.40
2019-01-26T14:48:29.414Z,-2.30
2019-01-26T14:50:59.434Z,-2.40
2019-01-26T14:53:30.267Z,-2.40
2019-01-26T14:56:00.398Z,-2.40
2019-01-26T14:58:30.401Z,-2.40
2019-01-26T15:01:00.462Z,-2.50
2019-01-26T15:03:30.545Z,-2.50
2019-01-26T15:06:00.667Z,-2.50
2019-01-26T15:08:30.582Z,-2.50
2019-01-26T15:11:00.537Z,-2.60
2019-01-26T15:13:30.503Z,-2.60
2019-01-26T15:16:00.743Z,-2.60
2019-01-26T15:18:30.842Z,-2.60
2019-01-26T15:21:00.984Z,-2.70
2019-01-26T15:23:30.932Z,-2.70
2019-01-26T15:26:02.045Z,-2.80
2019-01-26T15:28:32.154Z,-2.90
2019-01-26T15:31:02.339Z,-2.90
2019-01-26T15:33:32.561Z,-3.00
2019-01-26T15:36:09.313Z,-3.00
2019-01-26T15:38:39.544Z,-3.10
2019-01-26T15:41:09.643Z,-3.10
2019-01-26T15:43:39.912Z,-3.10
2019-01-26T15:46:09.988Z,-3.10
2019-01-26T15:48:40.125Z,-3.20
2019-01-26T15:51:10.195Z,-3.10
2019-01-26T15:53:40.198Z,-3.10
2019-01-26T15:56:10.503Z,-3.10
2019-01-26T15:58:40.561Z,-3.00
2019-01-26T16:01:12.147Z,-3.00
2019-01-26T16:03:42.264Z,-3.00
2019-01-26T16:06:12.472Z,-3.10
2019-01-26T16:08:43.489Z,-3.10
2019-01-26T16:11:13.591Z,-3.10
2019-01-26T16:13:43.671Z,-3.10
2019-01-26T16:16:13.923Z,-3.20
2019-01-26T16:18:43.924Z,-3.20
2019-01-26T16:21:14.087Z,-3.20
2019-01-26T16:23:44.254Z,-3.20
2019-01-26T16:26:14.359Z,-3.20
2019-01-26T16:28:44.482Z,-3.20
2019-01-26T16:31:14.610Z,-3.20
2019-01-26T16:33:44.744Z,-3.10
2019-01-26T16:36:16.284Z,-3.10
2019-01-26T16:38:46.322Z,-3.10
2019-01-26T16:41:16.344Z,-3.10
2019-01-26T16:43:48.200Z,-3.10
2019-01-26T16:46:18.460Z,-3.10
2019-01-26T16:48:48.708Z,-3.00
2019-01-26T16:51:18.814Z,-3.00
2019-01-26T16:53:50.423Z,-3.00
2019-01-26T16:56:20.460Z,-3.00
2019-01-26T16:58:50.559Z,-3.10
2019-01-26T17:01:20.755Z,-3.10
2019-01-26T17:03:51.020Z,-3.10
2019-01-26T17:06:21.059Z,-3.20
2019-01-26T17:08:51.100Z,-3.20
2019-01-26T17:11:21.064Z,-3.20
2019-01-26T17:13:53.141Z,-3.20
2019-01-26T17:16:23.253Z,-3.30
2019-01-26T17:18:53.415Z,-3.30
2019-01-26T17:21:23.606Z,-3.30
2019-01-26T17:23:53.765Z,-3.30
2019-01-26T17:26:23.853Z,-3.30
2019-01-26T17:28:54.044Z,-3.30
2019-01-26T17:31:24.173Z,-3.20
2019-01-26T17:33:54.346Z,-3.30
2019-01-26T17:36:24.391Z,-3.30
2019-01-26T17:38:54.386Z,-3.20
2019-01-26T17:41:24.515Z,-3.20
2019-01-26T17:43:54.646Z,-3.20
2019-01-26T17:46:24.850Z,-3.20
2019-01-26T17:49:02.164Z,-3.20
2019-01-26T17:51:34.734Z,-3.10
2019-01-26T17:54:07.644Z,-3.00
2019-01-26T17:56:46.966Z,-2.90
2019-01-26T17:59:21.871Z,-2.90
2019-01-26T18:01:52.326Z,-3.00
2019-01-26T18:04:23.866Z,-2.90
2019-01-26T18:06:53.892Z,-2.90
2019-01-26T18:09:23.967Z,-2.90
2019-01-26T18:11:53.946Z,-2.90
2019-01-26T18:14:24.102Z,-2.90
2019-01-26T18:16:54.308Z,-2.90
2019-01-26T18:19:24.225Z,-2.80
2019-01-26T18:21:54.410Z,-2.80
2019-01-26T18:24:24.406Z,-2.80
2019-01-26T18:26:54.475Z,-2.70
2019-01-26T18:29:24.610Z,-2.70
2019-01-26T18:31:54.751Z,-2.80
2019-01-26T18:34:25.449Z,-2.70
2019-01-26T18:36:55.687Z,-2.70
2019-01-26T18:39:26.691Z,-2.70
2019-01-26T18:41:56.806Z,-2.70
2019-01-26T18:44:26.933Z,-2.70
2019-01-26T18:46:57.086Z,-2.70
2019-01-26T18:49:27.056Z,-2.70
2019-01-26T18:51:58.005Z,-2.70
2019-01-26T18:54:27.988Z,-2.70
2019-01-26T18:56:58.986Z,-2.70
2019-01-26T18:59:33.478Z,-2.70
2019-01-26T19:02:24.690Z,-2.70
2019-01-26T19:05:04.543Z,-2.70
2019-01-26T19:07:34.607Z,-2.80
2019-01-26T19:10:19.112Z,-2.80
2019-01-26T19:13:01.468Z,-2.80
2019-01-26T19:15:31.585Z,-2.80
2019-01-26T19:18:01.627Z,-2.80
2019-01-26T19:20:31.932Z,-2.80
2019-01-26T19:23:02.148Z,-2.80
2019-01-26T19:25:32.543Z,-2.80
2019-01-26T19:28:02.602Z,-2.80
2019-01-26T19:30:32.791Z,-2.80
2019-01-26T19:33:03.111Z,-2.80
2019-01-26T19:35:33.266Z,-2.80
2019-01-26T19:38:03.712Z,-2.80
2019-01-26T19:40:35.149Z,-2.80
2019-01-26T19:43:05.482Z,-2.80
2019-01-26T19:45:35.689Z,-2.80
2019-01-26T19:48:09.422Z,-2.80
2019-01-26T19:50:39.898Z,-2.80
2019-01-26T19:53:09.742Z,-2.80
2019-01-26T19:55:40.050Z,-2.80
2019-01-26T19:58:10.304Z,-2.90
2019-01-26T20:00:40.421Z,-2.90
2019-01-26T20:03:10.750Z,-2.80
2019-01-26T20:05:40.920Z,-2.80
2019-01-26T20:08:15.282Z,-2.80
2019-01-26T20:10:45.352Z,-2.80
2019-01-26T20:13:16.565Z,-2.80
2019-01-26T20:15:46.761Z,-2.80
2019-01-26T20:18:16.802Z,-2.80
2019-01-26T20:20:46.861Z,-2.80
2019-01-26T20:23:17.041Z,-2.80
2019-01-26T20:25:48.848Z,-2.80
2019-01-26T20:28:48.631Z,-2.80
2019-01-26T20:31:19.156Z,-2.80
2019-01-26T20:33:51.161Z,-2.80
2019-01-26T20:36:22.002Z,-2.80
2019-01-26T20:38:52.477Z,-2.90
2019-01-26T20:41:24.426Z,-2.90
2019-01-26T20:43:54.636Z,-2.90
2019-01-26T20:46:24.790Z,-2.90
2019-01-26T20:48:59.506Z,-2.90
2019-01-26T20:51:31.222Z,-2.90
2019-01-26T20:54:01.676Z,-2.90
2019-01-26T20:56:32.029Z,-2.90
2019-01-26T20:59:03.678Z,-2.90
2019-01-26T21:01:43.439Z,-2.90
2019-01-26T21:04:19.809Z,-2.90
2019-01-26T21:06:51.127Z,-2.90
2019-01-26T21:09:23.232Z,-2.90
2019-01-26T21:11:53.630Z,-2.90
2019-01-26T21:14:24.641Z,-2.90
2019-01-26T21:16:58.960Z,-2.90
2019-01-26T21:19:33.369Z,-3.00
2019-01-26T21:22:06.934Z,-3.00
2019-01-26T21:24:37.182Z,-3.00
2019-01-26T21:27:09.731Z,-3.00
2019-01-26T21:29:42.543Z,-3.00
2019-01-26T21:32:14.947Z,-3.10
2019-01-26T21:34:47.989Z,-3.10
2019-01-26T21:37:18.402Z,-3.10
2019-01-26T21:39:52.921Z,-3.20
2019-01-26T21:42:24.669Z,-3.20
2019-01-26T21:44:54.810Z,-3.30
2019-01-26T21:47:24.962Z,-3.40
2019-01-26T21:49:55.142Z,-3.40
2019-01-26T21:52:25.220Z,-3.50
2019-01-26T21:54:55.262Z,-3.60
2019-01-26T21:57:25.398Z,-3.60
2019-01-26T21:59:58.171Z,-3.70
2019-01-26T22:02:28.263Z,-3.80
2019-01-26T22:04:58.763Z,-3.90
2019-01-26T22:07:28.921Z,-4.00
2019-01-26T22:09:58.940Z,-4.10
2019-01-26T22:12:29.071Z,-4.10
2019-01-26T22:15:00.300Z,-4.20
2019-01-26T22:17:30.412Z,-4.30
2019-01-26T22:20:03.514Z,-4.30
2019-01-26T22:22:33.980Z,-4.40
2019-01-26T22:25:04.583Z,-4.50
2019-01-26T22:27:34.638Z,-4.50
2019-01-26T22:30:07.039Z,-4.60
2019-01-26T22:32:37.219Z,-4.60
2019-01-26T22:35:07.450Z,-4.70
2019-01-26T22:37:39.285Z,-4.80
2019-01-26T22:40:14.183Z,-4.80
2019-01-26T22:42:44.226Z,-4.90
2019-01-26T22:45:14.525Z,-4.90
2019-01-26T22:47:44.733Z,-4.90
2019-01-26T22:50:15.886Z,-4.90
2019-01-26T22:52:46.071Z,-4.90
2019-01-26T22:55:17.403Z,-4.80
2019-01-26T22:57:47.527Z,-4.80
2019-01-26T23:00:45.683Z,-4.70
2019-01-26T23:03:16.370Z,-4.70
2019-01-26T23:06:00.326Z,-4.60
2019-01-26T23:08:33.025Z,-4.70
2019-01-26T23:11:16.433Z,-4.60
2019-01-26T23:13:54.293Z,-4.70
2019-01-26T23:17:02.674Z,-4.70
2019-01-26T23:19:55.533Z,-4.70
2019-01-26T23:23:03.970Z,-4.80
2019-01-26T23:25:51.596Z,-4.80
2019-01-26T23:28:46.583Z,-4.80
2019-01-26T23:31:20.985Z,-4.80
2019-01-26T23:33:56.533Z,-4.90
2019-01-26T23:36:26.850Z,-4.90
2019-01-26T23:39:02.216Z,-5.00
2019-01-26T23:41:28.622Z,-5.00
2019-01-26T23:43:58.603Z,-5.10
2019-01-26T23:46:28.729Z,-5.10
2019-01-26T23:48:58.932Z,-5.10
2019-01-26T23:51:28.989Z,-5.20
2019-01-26T23:53:59.222Z,-5.20
2019-01-26T23:56:29.359Z,-5.30
2019-01-26T23:58:59.364Z,-5.30
